createdAt,value
2019-05-10T00:01:22.771Z,1.70
2019-05-10T00:04:10.542Z,1.20
2019-05-10T00:06:58.844Z,1.30
2019-05-10T00:09:28.618Z,1.40
2019-05-10T00:20:17.428Z,1.45
2019-05-10T00:22:47.947Z,1.20
2019-05-10T00:25:16.552Z,1.30
2019-05-10T00:27:45.851Z,2.73
2019-05-10T00:30:14.494Z,1.37
2019-05-10T00:32:43.409Z,1.20
2019-05-10T00:35:12.314Z,1.15
2019-05-10T00:37:40.805Z,2.15
2019-05-10T00:40:08.765Z,2.75
2019-05-10T00:45:06.795Z,1.30
2019-05-10T00:47:35.870Z,1.20
2019-05-10T00:50:04.809Z,1.40
2019-05-10T00:55:17.372Z,1.10
2019-05-10T01:00:00.931Z,1.37
2019-05-10T01:02:28.870Z,1.20
2019-05-10T01:04:57.406Z,1.30
2019-05-10T01:09:54.775Z,1.00
2019-05-10T01:12:24.654Z,2.60
2019-05-10T01:14:54.726Z,1.30
2019-05-10T01:17:24.668Z,1.35
2019-05-10T01:19:53.967Z,1.00
2019-05-10T01:22:23.345Z,2.25
2019-05-10T01:24:53.478Z,1.00
2019-05-10T01:27:22.146Z,0.90
2019-05-10T01:31:00.319Z,1.35
2019-05-10T01:33:29.684Z,1.10
2019-05-10T01:36:00.584Z,1.20
2019-05-10T01:38:28.478Z,0.80
2019-05-10T01:43:25.899Z,1.25
2019-05-10T01:45:55.794Z,1.00
2019-05-10T01:48:26.057Z,1.10
2019-05-10T01:50:56.235Z,1.30
2019-05-10T01:53:43.767Z,0.90
2019-05-10T01:56:12.601Z,3.30
2019-05-10T01:58:41.681Z,0.90
2019-05-10T02:01:10.573Z,1.40
2019-05-10T02:06:07.788Z,1.00
2019-05-10T02:08:35.762Z,1.50
2019-05-10T02:11:05.595Z,0.95
2019-05-10T02:13:34.598Z,1.35
2019-05-10T02:16:03.732Z,1.25
2019-05-10T02:18:33.112Z,1.00
2019-05-10T02:21:04.637Z,1.65
2019-05-10T02:23:34.754Z,1.20
2019-05-10T02:26:09.651Z,1.20
2019-05-10T02:28:33.198Z,1.15
2019-05-10T02:31:03.539Z,1.10
2019-05-10T02:33:32.749Z,1.50
2019-05-10T02:38:27.819Z,1.10
2019-05-10T02:40:58.857Z,1.20
2019-05-10T02:43:27.744Z,1.15
2019-05-10T02:48:26.091Z,1.30
2019-05-10T02:53:24.651Z,1.60
2019-05-10T02:55:53.847Z,1.35
2019-05-10T02:58:21.723Z,0.90
2019-05-10T03:00:51.637Z,0.90
2019-05-10T03:03:22.425Z,0.97
2019-05-10T03:05:51.829Z,0.90
2019-05-10T03:08:21.804Z,1.10
2019-05-10T03:10:58.671Z,1.85
2019-05-10T03:14:12.592Z,0.80
2019-05-10T03:16:40.526Z,1.10
2019-05-10T03:19:10.891Z,0.95
2019-05-10T03:26:50.473Z,1.40
2019-05-10T03:29:08.455Z,0.88
2019-05-10T03:31:37.460Z,1.00
2019-05-10T03:36:34.204Z,0.90
2019-05-10T03:39:02.859Z,1.90
2019-05-10T03:41:33.398Z,1.00
2019-05-10T03:44:01.755Z,3.20
2019-05-10T03:46:32.811Z,1.35
2019-05-10T03:51:29.945Z,2.10
2019-05-10T03:53:57.936Z,5.00
2019-05-10T03:56:26.713Z,4.20
2019-05-10T04:02:58.732Z,5.97
2019-05-10T04:05:28.655Z,6.20
2019-05-10T04:10:26.878Z,1.85
2019-05-10T04:15:25.696Z,4.70
2019-05-10T04:17:53.827Z,3.70
2019-05-10T04:20:24.830Z,4.95
2019-05-10T04:22:55.289Z,4.70
2019-05-10T04:25:25.135Z,3.70
2019-05-10T04:27:54.771Z,3.85
2019-05-10T04:30:23.524Z,2.90
2019-05-10T04:32:53.189Z,2.75
2019-05-10T04:35:22.779Z,1.90
2019-05-10T04:37:51.981Z,1.05
2019-05-10T04:40:21.475Z,2.25
2019-05-10T04:45:20.225Z,2.20
2019-05-10T04:47:51.331Z,1.50
2019-05-10T04:50:22.107Z,1.70
2019-05-10T04:52:52.073Z,1.40
2019-05-10T04:57:51.383Z,1.85
2019-05-10T05:00:21.557Z,3.60
2019-05-10T05:02:51.799Z,4.00
2019-05-10T05:07:09.776Z,0.90
2019-05-10T05:09:36.765Z,2.72
2019-05-10T05:12:03.892Z,1.00
2019-05-10T05:14:30.984Z,1.07
2019-05-10T05:16:57.960Z,1.20
2019-05-10T05:19:24.943Z,3.45
2019-05-10T05:21:52.156Z,2.58
2019-05-10T05:24:23.023Z,1.67
2019-05-10T05:26:50.739Z,3.30
2019-05-10T05:29:20.837Z,2.70
2019-05-10T05:31:47.809Z,1.53
2019-05-10T05:34:17.799Z,3.00
2019-05-10T05:36:47.089Z,2.60
2019-05-10T05:39:15.680Z,3.80
2019-05-10T05:45:37.841Z,5.10
2019-05-10T05:48:07.886Z,5.70
2019-05-10T05:50:39.015Z,6.90
2019-05-10T05:54:33.516Z,2.85
2019-05-10T05:57:04.530Z,3.25
2019-05-10T05:59:33.939Z,3.15
2019-05-10T06:02:07.361Z,1.60
2019-05-10T06:04:34.698Z,3.00
2019-05-10T06:07:04.698Z,3.85
2019-05-10T06:12:07.330Z,1.90
2019-05-10T06:14:33.658Z,1.25
2019-05-10T06:17:04.574Z,1.80
2019-05-10T06:19:32.533Z,1.80
2019-05-10T06:22:04.787Z,3.80
2019-05-10T06:24:34.607Z,2.10
2019-05-10T06:27:03.606Z,0.90
2019-05-10T06:29:33.877Z,0.85
2019-05-10T06:32:02.595Z,2.80
2019-05-10T06:34:38.955Z,1.00
2019-05-10T06:42:03.360Z,1.60
2019-05-10T06:47:08.261Z,9.20
2019-05-10T06:52:03.887Z,7.00
2019-05-10T06:57:03.762Z,1.45
2019-05-10T06:59:33.192Z,4.20
2019-05-10T07:04:28.848Z,4.37
2019-05-10T07:06:56.600Z,2.95
2019-05-10T07:09:23.682Z,4.17
2019-05-10T07:11:50.978Z,3.67
2019-05-10T07:14:27.952Z,1.80
2019-05-10T07:16:56.658Z,5.50
2019-05-10T07:19:28.899Z,3.25
2019-05-10T07:21:57.722Z,1.90
2019-05-10T07:24:27.077Z,2.10
2019-05-10T07:27:02.435Z,2.80
2019-05-10T07:29:30.459Z,1.35
2019-05-10T07:32:01.197Z,4.05
2019-05-10T07:34:30.991Z,1.70
2019-05-10T07:37:01.892Z,2.40
2019-05-10T07:39:32.441Z,4.00
2019-05-10T07:42:06.702Z,2.70
2019-05-10T07:44:35.659Z,3.10
2019-05-10T07:47:05.587Z,2.35
2019-05-10T07:49:32.762Z,1.47
2019-05-10T07:52:02.126Z,2.42
2019-05-10T07:54:28.783Z,2.83
2019-05-10T07:59:29.050Z,3.55
2019-05-10T08:01:54.121Z,1.40
2019-05-10T08:06:54.162Z,3.17
2019-05-10T08:09:21.247Z,2.47
2019-05-10T08:11:48.539Z,1.30
2019-05-10T08:14:15.625Z,2.37
2019-05-10T08:16:42.742Z,3.83
2019-05-10T08:19:09.761Z,2.72
2019-05-10T08:21:38.432Z,1.80
2019-05-10T08:26:39.688Z,2.55
2019-05-10T08:29:13.598Z,1.50
2019-05-10T08:31:40.893Z,4.10
2019-05-10T08:34:11.777Z,3.90
2019-05-10T08:36:45.873Z,2.00
2019-05-10T08:39:14.003Z,4.65
2019-05-10T08:41:45.838Z,1.50
2019-05-10T08:44:19.730Z,2.15
2019-05-10T08:46:47.838Z,1.10
2019-05-10T08:49:21.986Z,1.40
2019-05-10T08:51:49.283Z,2.60
2019-05-10T08:54:17.683Z,1.30
2019-05-10T08:59:34.025Z,1.60
2019-05-10T09:07:03.301Z,2.80
2019-05-10T09:09:42.281Z,1.90
2019-05-10T09:12:09.052Z,1.60
2019-05-10T09:14:36.609Z,2.20
2019-05-10T09:17:05.633Z,1.30
2019-05-10T09:22:06.724Z,2.65
2019-05-10T09:24:43.080Z,1.10
2019-05-10T09:27:06.905Z,2.00
2019-05-10T09:29:37.413Z,2.00
2019-05-10T09:32:06.565Z,1.50
2019-05-10T09:34:38.294Z,1.40
2019-05-10T09:37:08.295Z,2.25
2019-05-10T09:39:37.772Z,1.90
2019-05-10T09:42:10.538Z,2.25
2019-05-10T09:47:07.009Z,1.80
2019-05-10T09:49:37.527Z,1.20
2019-05-10T09:54:38.067Z,1.80
2019-05-10T09:57:08.282Z,1.30
2019-05-10T09:59:37.422Z,3.33
2019-05-10T10:04:37.219Z,7.70
2019-05-10T10:07:06.591Z,3.65
2019-05-10T10:12:07.066Z,6.60
2019-05-10T10:17:09.602Z,3.60
2019-05-10T10:19:40.701Z,3.05
2019-05-10T10:22:13.206Z,4.80
2019-05-10T10:27:10.489Z,4.65
2019-05-10T10:32:08.067Z,3.80
2019-05-10T10:34:38.719Z,2.40
2019-05-10T10:37:08.726Z,3.55
2019-05-10T10:39:37.194Z,2.83
2019-05-10T10:42:08.694Z,4.45
2019-05-10T10:44:36.936Z,2.40
2019-05-10T10:49:37.637Z,3.50
2019-05-10T10:52:11.389Z,2.30
2019-05-10T10:54:39.755Z,2.70
2019-05-10T10:59:37.370Z,3.37
2019-05-10T11:02:28.830Z,7.65
2019-05-10T11:04:40.456Z,5.15
2019-05-10T11:07:10.839Z,5.70
2019-05-10T11:09:40.845Z,4.45
2019-05-10T11:16:10.861Z,5.90
2019-05-10T11:18:41.659Z,4.10
2019-05-10T11:23:41.851Z,7.30
2019-05-10T11:26:10.727Z,4.85
2019-05-10T11:28:43.474Z,5.30
2019-05-10T11:31:11.342Z,6.60
2019-05-10T11:33:41.433Z,4.40
2019-05-10T11:36:11.402Z,6.63
2019-05-10T11:38:42.015Z,4.60
2019-05-10T11:41:13.679Z,4.70
2019-05-10T11:43:42.086Z,5.80
2019-05-10T11:46:12.422Z,4.35
2019-05-10T11:48:42.127Z,7.00
2019-05-10T11:53:41.794Z,4.10
2019-05-10T11:58:49.056Z,4.70
2019-05-10T12:01:17.777Z,5.30
2019-05-10T12:03:44.432Z,3.60
2019-05-10T12:06:12.286Z,3.90
2019-05-10T12:08:42.056Z,5.30
2019-05-10T12:11:28.334Z,5.45
2019-05-10T12:13:41.906Z,2.10
2019-05-10T12:16:12.364Z,5.45
2019-05-10T12:18:46.487Z,5.00
2019-05-10T12:23:50.281Z,3.50
2019-05-10T12:26:05.893Z,6.30
2019-05-10T12:28:41.687Z,6.30
2019-05-10T12:31:15.077Z,5.40
2019-05-10T12:33:44.552Z,6.65
2019-05-10T12:36:13.101Z,6.10
2019-05-10T12:38:40.513Z,3.57
2019-05-10T12:41:09.322Z,6.45
2019-05-10T12:43:37.599Z,4.00
2019-05-10T12:46:06.294Z,5.35
2019-05-10T12:48:35.859Z,8.40
2019-05-10T12:53:44.514Z,8.10
2019-05-10T12:56:08.230Z,19.97
2019-05-10T12:58:36.695Z,23.97
2019-05-10T13:01:04.744Z,31.85
2019-05-10T13:03:34.648Z,44.90
2019-05-10T13:06:02.461Z,67.17
2019-05-10T13:08:30.593Z,92.60
2019-05-10T13:10:59.675Z,145.25
2019-05-10T13:13:30.496Z,146.30
2019-05-10T13:16:03.574Z,146.05
2019-05-10T13:21:01.912Z,173.20
2019-05-10T13:23:30.362Z,178.40
2019-05-10T13:28:28.089Z,180.60
2019-05-10T13:30:59.971Z,194.50
2019-05-10T13:33:28.888Z,232.70
2019-05-10T13:35:58.389Z,216.20
2019-05-10T13:38:28.259Z,201.90
2019-05-10T13:40:58.716Z,203.00
2019-05-10T13:43:28.426Z,218.33
2019-05-10T13:45:57.685Z,216.20
2019-05-10T13:48:26.919Z,208.30
2019-05-10T13:50:56.102Z,201.35
2019-05-10T13:53:25.117Z,182.20
2019-05-10T13:55:54.452Z,156.65
2019-05-10T14:00:53.704Z,136.90
2019-05-10T14:03:22.713Z,131.40
2019-05-10T14:05:52.853Z,113.15
2019-05-10T14:08:21.258Z,108.60
2019-05-10T14:10:49.964Z,106.95
2019-05-10T14:13:18.663Z,98.90
2019-05-10T14:15:47.694Z,87.40
2019-05-10T14:18:16.163Z,72.40
2019-05-10T14:25:29.428Z,59.35
2019-05-10T14:27:59.340Z,59.05
2019-05-10T14:32:57.724Z,46.70
2019-05-10T14:35:27.366Z,40.90
2019-05-10T14:39:38.933Z,35.50
2019-05-10T14:42:09.512Z,34.00
2019-05-10T14:44:38.511Z,32.23
2019-05-10T14:47:05.816Z,28.65
2019-05-10T14:49:33.099Z,27.98
2019-05-10T14:52:00.100Z,26.65
2019-05-10T14:54:42.265Z,27.02
2019-05-10T14:56:57.639Z,23.00
2019-05-10T14:59:24.688Z,22.93
2019-05-10T15:01:54.452Z,25.10
2019-05-10T15:04:46.633Z,23.90
2019-05-10T15:06:56.428Z,25.15
2019-05-10T15:09:44.311Z,28.30
2019-05-10T15:12:16.439Z,22.73
2019-05-10T15:14:42.538Z,19.30
2019-05-10T15:17:12.976Z,22.10
2019-05-10T15:19:41.316Z,13.10
2019-05-10T15:22:18.420Z,17.30
2019-05-10T15:24:41.910Z,10.27
2019-05-10T15:27:11.311Z,11.60
2019-05-10T15:32:08.886Z,16.75
2019-05-10T15:34:37.573Z,20.40
2019-05-10T15:37:09.388Z,19.85
2019-05-10T15:39:37.150Z,19.55
2019-05-10T15:44:34.127Z,22.50
2019-05-10T15:47:05.838Z,23.30
2019-05-10T15:49:33.756Z,22.20
2019-05-10T15:52:16.892Z,18.50
2019-05-10T15:54:51.595Z,14.60
2019-05-10T15:57:21.801Z,13.70
2019-05-10T15:59:56.324Z,16.40
2019-05-10T16:02:20.164Z,12.50
2019-05-10T16:09:49.933Z,11.50
2019-05-10T16:12:16.685Z,13.70
2019-05-10T16:14:45.884Z,12.60
2019-05-10T16:17:17.077Z,13.90
2019-05-10T16:19:44.410Z,11.85
2019-05-10T16:22:14.155Z,8.90
2019-05-10T16:24:43.311Z,13.60
2019-05-10T16:27:12.693Z,13.90
2019-05-10T16:29:41.872Z,11.20
2019-05-10T16:32:10.767Z,10.10
2019-05-10T16:34:39.158Z,13.50
2019-05-10T16:37:09.134Z,11.60
2019-05-10T16:39:37.301Z,13.25
2019-05-10T16:42:05.623Z,15.40
2019-05-10T16:44:33.550Z,12.60
2019-05-10T16:47:02.246Z,17.60
2019-05-10T16:49:30.546Z,16.70
2019-05-10T16:51:58.934Z,13.10
2019-05-10T16:54:27.473Z,15.30
2019-05-10T16:56:59.437Z,13.50
2019-05-10T16:59:29.630Z,22.95
2019-05-10T17:02:04.640Z,17.20
2019-05-10T17:04:32.061Z,17.40
2019-05-10T17:07:01.311Z,15.20
2019-05-10T17:11:59.171Z,28.20
2019-05-10T17:14:28.305Z,26.10
2019-05-10T17:19:33.323Z,24.90
2019-05-10T17:21:58.397Z,24.75
2019-05-10T17:24:26.350Z,33.40
2019-05-10T17:26:55.489Z,28.70
2019-05-10T17:29:24.865Z,35.50
2019-05-10T17:31:53.312Z,20.20
2019-05-10T17:34:29.161Z,24.40
2019-05-10T17:36:57.975Z,27.87
2019-05-10T17:39:26.267Z,31.70
2019-05-10T17:42:17.247Z,28.80
2019-05-10T17:44:45.892Z,16.03
2019-05-10T17:49:42.009Z,18.80
2019-05-10T17:52:10.890Z,25.00
2019-05-10T17:54:39.117Z,20.27
2019-05-10T17:57:10.526Z,17.90
2019-05-10T17:59:38.528Z,21.45
2019-05-10T18:07:04.676Z,21.60
2019-05-10T18:09:33.177Z,15.20
2019-05-10T18:12:03.451Z,14.30
2019-05-10T18:16:24.840Z,18.30
2019-05-10T18:21:16.087Z,15.05
2019-05-10T18:26:09.258Z,13.90
2019-05-10T18:30:06.763Z,11.80
2019-05-10T18:32:37.110Z,15.20
2019-05-10T18:35:13.289Z,12.95
2019-05-10T18:37:34.798Z,12.70
2019-05-10T18:40:04.315Z,9.50
2019-05-10T18:42:33.342Z,10.90
2019-05-10T18:49:55.494Z,17.80
2019-05-10T18:52:24.343Z,8.90
2019-05-10T18:54:52.263Z,13.43
2019-05-10T18:57:21.337Z,9.90
2019-05-10T18:59:49.404Z,10.63
2019-05-10T19:02:19.655Z,12.80
2019-05-10T19:04:51.950Z,9.90
2019-05-10T19:07:20.211Z,9.33
2019-05-10T19:09:48.365Z,8.10
2019-05-10T19:12:18.727Z,11.20
2019-05-10T19:14:47.296Z,8.50
2019-05-10T19:17:16.077Z,11.55
2019-05-10T19:19:44.390Z,6.23
2019-05-10T19:22:13.982Z,8.50
2019-05-10T19:24:42.218Z,9.90
2019-05-10T19:27:10.148Z,8.45
2019-05-10T19:29:45.602Z,7.60
2019-05-10T19:32:17.893Z,6.30
2019-05-10T19:34:42.403Z,11.10
2019-05-10T19:37:11.245Z,8.10
2019-05-10T19:42:10.745Z,6.10
2019-05-10T19:44:40.535Z,7.65
2019-05-10T19:47:16.836Z,8.80
2019-05-10T19:54:29.528Z,5.95
2019-05-10T19:58:34.055Z,8.60
2019-05-10T20:01:03.616Z,7.90
2019-05-10T20:06:02.594Z,7.10
2019-05-10T20:08:34.697Z,6.65
2019-05-10T20:13:34.805Z,6.95
2019-05-10T20:16:05.613Z,6.20
2019-05-10T20:18:34.621Z,5.25
2019-05-10T20:26:02.931Z,12.10
2019-05-10T20:28:32.546Z,7.40
2019-05-10T20:31:01.603Z,9.60
2019-05-10T20:35:59.201Z,10.50
2019-05-10T20:40:57.819Z,5.10
2019-05-10T20:45:58.816Z,3.95
2019-05-10T20:48:29.683Z,6.00
2019-05-10T20:51:00.049Z,4.90
2019-05-10T20:53:31.664Z,7.20
2019-05-10T20:55:59.659Z,5.75
2019-05-10T20:58:28.697Z,7.30
2019-05-10T21:00:58.776Z,6.50
2019-05-10T21:03:29.280Z,5.00
2019-05-10T21:08:26.790Z,6.00
2019-05-10T21:10:55.935Z,8.10
2019-05-10T21:18:25.517Z,7.50
2019-05-10T21:23:22.693Z,9.20
2019-05-10T21:25:52.793Z,8.35
2019-05-10T21:28:22.790Z,7.40
2019-05-10T21:30:53.603Z,8.30
2019-05-10T21:33:22.007Z,4.00
2019-05-10T21:35:50.640Z,7.85
2019-05-10T21:38:32.455Z,6.90
2019-05-10T21:40:56.036Z,6.60
2019-05-10T21:45:26.454Z,7.15
2019-05-10T21:47:56.551Z,6.40
2019-05-10T21:50:27.742Z,6.90
2019-05-10T21:52:57.728Z,8.80
2019-05-10T21:55:28.039Z,5.20
2019-05-10T21:58:01.211Z,5.00
2019-05-10T22:03:04.788Z,10.20
2019-05-10T22:05:34.414Z,11.60
2019-05-10T22:08:05.820Z,8.40
2019-05-10T22:13:06.774Z,6.20
2019-05-10T22:15:39.749Z,5.00
2019-05-10T22:23:16.767Z,6.85
2019-05-10T22:25:48.303Z,7.10
2019-05-10T22:28:35.325Z,4.95
2019-05-10T22:31:04.715Z,6.30
2019-05-10T22:40:52.959Z,5.65
2019-05-10T22:43:24.456Z,5.80
2019-05-10T22:45:55.189Z,4.70
2019-05-10T22:48:25.987Z,8.20
2019-05-10T22:50:58.104Z,7.60
2019-05-10T22:53:28.912Z,6.30
2019-05-10T22:56:00.451Z,8.20
2019-05-10T22:58:30.023Z,5.10
2019-05-10T23:06:00.136Z,3.95
2019-05-10T23:11:01.106Z,4.15
2019-05-10T23:16:02.822Z,6.60
2019-05-10T23:18:34.774Z,6.40
2019-05-10T23:31:04.036Z,4.65
2019-05-10T23:33:32.666Z,6.23
2019-05-10T23:38:31.236Z,7.30
2019-05-10T23:41:01.854Z,5.50
2019-05-10T23:43:32.903Z,6.90
2019-05-10T23:46:04.950Z,9.55
2019-05-10T23:48:36.651Z,5.90
2019-05-10T23:51:05.789Z,10.30
2019-05-10T23:58:32.609Z,5.65
